Portsmouth, Virginia - KPWR: 24-hour Summary Portsmouth Weather Records Service - Portsmouth, Virginia



LOCAL CLIMATOLOGICAL DATA: Morning 24-hour Summary
[updated each morning between 7AM and 9AM]
Station: Portsmouth, Virginia - KPWR Latitude: 36° 48' 04" N Longitude: 76° 19' 37" W Elevation (ground): 13 ft. Time Zone: Eastern

BE SURE TO RELOAD/REFRESH THIS SCREEN FOR DAILY UPDATES BY RIGHT-CLICKING THE BACKGROUND The data in this frame and listed below are final adjusted site data for the time period.


------------------------------------------------------------------------------------------------------------------------------------------		
TUESDAY			Temp	Hi	Low	Out	Dew	Wind	Wind	Wind	Hi	Hi	Wind	Heat	THW			Rain	Heat	Cool	In 	In	In 	In 	Wind	Wind	ISS 	Arc.
Date		Time	Out	Temp	Temp	Hum	Pt.	Speed	Dir	Run	Speed	Dir	Chill	Index	Index	Bar  	Rain	Rate	D-D 	D-D 	Temp	Hum	Dew	Heat	Samp	Tx 	Recept	Int.
09/19/17	1:00 a	73.6	73.8	73.6	89	70.2	4.0	NE	4.00	20.0	NE	73.6	76.0	76.0	29.887	0.00	0.00	0.000	0.358	79.7	42	54.6	79.0	1403	1	100.0	60
09/19/17	2:00 a	73.6	73.7	73.5	89	70.2	4.0	NW	4.00	23.0	NW	73.6	76.0	76.0	29.875	0.00	0.00	0.000	0.358	79.8	44	55.9	79.3	1405	1	100.0	60
09/19/17	3:00 a	73.5	73.6	73.4	89	70.1	4.0	NNW	4.00	25.0	ENE	73.5	75.9	75.9	29.860	0.00	0.00	0.000	0.354	79.9	45	56.7	79.5	1405	1	100.0	60
09/19/17	4:00 a	73.4	73.5	73.3	89	70.0	4.0	NW	4.00	22.0	NW	73.4	75.8	75.8	29.843	0.00	0.00	0.000	0.350	79.9	46	57.3	79.6	1405	1	100.0	60
09/19/17	5:00 a	73.5	73.5	73.2	89	70.1	5.0	NNW	5.00	24.0	NW	73.5	75.9	75.9	29.840	0.00	0.00	0.000	0.354	78.8	44	55.0	78.4	1405	1	100.0	60
09/19/17	6:00 a	72.7	73.5	72.7	91	69.9	4.0	NW	4.00	18.0	NNW	72.7	75.2	75.2	29.847	0.00	0.00	0.000	0.321	79.0	45	55.8	78.7	1405	1	100.0	60
09/19/17	7:00 a	72.7	72.8	72.6	89	69.3	4.0	NW	4.00	20.0	WNW	72.7	75.0	75.0	29.846	0.00	0.00	0.000	0.321	82.4	44	58.3	82.4	1405	1	100.0	60
09/19/17	8:00 a	72.5	72.7	72.5	90	69.4	5.0	NW	5.00	21.0	WNW	72.5	74.8	74.8	29.854	0.00	0.00	0.000	0.313	84.6	41	58.3	85.0	1405	1	100.0	60
09/19/17	9:00 a	71.1	72.5	71.1	96	69.9	4.0	N	4.00	17.0	WNW	71.1	74.0	74.0	29.859	0.06	0.63	0.000	0.254	84.0	44	59.7	84.9	1405	1	100.0	60
09/19/17	10:00 a	71.8	71.8	71.1	92	69.3	0.0	NW	0.00	18.0	NNW	71.8	74.2	74.2	29.866	0.00	0.00	0.000	0.283	85.3	47	62.8	86.7	1405	1	100.0	60
09/19/17	11:00 a	72.9	73.2	71.8	90	69.8	4.0	NW	4.00	21.0	NW	72.9	75.4	75.4	29.875	0.00	0.00	0.000	0.329	82.7	46	59.8	83.2	1405	1	100.0	60
09/19/17	12:00 p	72.2	72.9	71.8	94	70.4	5.0	NW	5.00	24.0	NW	72.2	74.9	74.9	29.866	0.02	0.09	0.000	0.300	80.1	47	58.0	79.9	1405	1	100.0	60
09/19/17	1:00 p	73.6	73.6	72.2	92	71.1	5.0	NW	5.00	21.0	NNW	73.6	76.2	76.2	29.865	0.00	0.00	0.000	0.358	80.4	49	59.5	80.4	1405	1	100.0	60
09/19/17	2:00 p	73.4	73.6	73.0	91	70.6	4.0	NNW	4.00	21.0	WNW	73.4	75.9	75.9	29.855	0.01	0.00	0.000	0.350	80.8	50	60.4	81.0	1405	1	100.0	60
09/19/17	3:00 p	73.9	73.9	73.2	90	70.8	4.0	NNW	4.00	20.0	NNW	73.9	76.3	76.3	29.842	0.01	0.00	0.000	0.371	79.8	45	56.6	79.4	1404	1	100.0	60
09/19/17	4:00 p	76.3	76.3	74.0	87	72.1	4.0	NW	4.00	18.0	NNW	76.3	79.8	79.8	29.838	0.00	0.00	0.000	0.471	80.5	47	58.4	80.3	1405	1	100.0	60
09/19/17	5:00 p	76.2	76.4	75.6	84	71.0	5.0	NW	5.00	21.0	NW	76.2	79.4	79.4	29.838	0.00	0.00	0.000	0.467	80.8	44	56.9	80.3	1405	1	100.0	60
09/19/17	6:00 p	73.0	76.3	73.0	94	71.2	4.0	NW	4.00	18.0	NE	73.0	75.7	75.7	29.853	0.10	2.23	0.000	0.333	80.1	45	56.8	79.7	1406	1	100.0	60
09/19/17	7:00 p	72.0	72.9	72.0	97	71.1	0.0	N	0.00	6.0	NNW	72.0	75.1	75.1	29.842	0.00	0.00	0.000	0.292	80.1	47	58.0	79.9	1404	1	100.0	60
09/19/17	8:00 p	72.0	72.2	72.0	95	70.5	0.0	NNW	0.00	7.0	NNW	72.0	74.8	74.8	29.854	0.00	0.00	0.000	0.292	83.0	44	58.8	83.3	1405	1	100.0	60
09/19/17	9:00 p	72.2	72.2	71.9	94	70.4	0.0	N	0.00	10.0	N	72.2	74.9	74.9	29.862	0.00	0.00	0.000	0.300	83.0	37	54.0	82.2	1405	1	100.0	60
09/19/17	10:00 p	72.1	72.4	72.1	94	70.3	0.0	---	0.00	0.0	---	72.1	74.8	74.8	29.867	0.00	0.00	0.000	0.296	82.4	41	56.3	82.0	1405	1	100.0	60
09/19/17	11:00 p	71.7	72.1	71.7	96	70.5	0.0	---	0.00	0.0	---	71.7	74.6	74.6	29.873	0.00	0.00	0.000	0.279	82.3	42	56.9	82.0	1405	1	100.0	60
09/20/17	12:00 a	71.5	71.7	71.5	96	70.3	0.0	---	0.00	0.0	---	71.5	74.4	74.4	29.868	0.00	0.00	0.000	0.271	82.9	42	57.5	82.9	1405	1	100.0	60

WEDNESDAY		Temp	Hi	Low	Out	Dew	Wind	Wind	Wind	Hi	Hi	Wind	Heat	THW			Rain	Heat	Cool	In 	In	In 	In 	Wind	Wind	ISS 	Arc.
Date		Time	Out	Temp	Temp	Hum	Pt.	Speed	Dir	Run	Speed	Dir	Chill	Index	Index	Bar  	Rain	Rate	D-D 	D-D 	Temp	Hum	Dew	Heat	Samp	Tx 	Recept	Int.
09/20/17	1:00 a	71.9	71.9	71.5	95	70.4	0.0	WNW	0.00	10.0	WNW	71.9	74.7	74.7	29.869	0.00	0.00	0.000	0.288	83.2	42	57.7	83.3	1404	1	100.0	60
09/20/17	2:00 a	72.0	72.1	71.9	94	70.2	0.0	---	0.00	0.0	---	72.0	74.7	74.7	29.869	0.00	0.00	0.000	0.292	83.2	42	57.7	83.3	1405	1	100.0	60
09/20/17	3:00 a	70.8	72.0	70.8	95	69.3	0.0	---	0.00	0.0	---	70.8	73.5	73.5	29.863	0.00	0.00	0.000	0.242	83.1	41	57.0	83.0	1404	1	100.0	60
09/20/17	4:00 a	70.1	70.8	70.1	95	68.6	0.0	---	0.00	0.0	---	70.1	72.6	72.6	29.865	0.00	0.00	0.000	0.212	82.3	40	55.6	81.7	1405	1	100.0	60
09/20/17	5:00 a	69.4	70.1	69.4	95	67.9	0.0	W	0.00	4.0	W	69.4	71.8	71.8	29.873	0.00	0.00	0.000	0.183	82.3	41	56.2	81.9	1405	1	100.0	60
09/20/17	6:00 a	69.2	69.4	69.2	94	67.4	0.0	---	0.00	0.0	---	69.2	71.5	71.5	29.885	0.00	0.00	0.000	0.175	81.7	42	56.4	81.1	1405	1	100.0	60
09/20/17	7:00 a	68.9	69.2	68.9	94	67.1	0.0	---	0.00	0.0	---	68.9	71.1	71.1	29.902	0.00	0.00	0.000	0.163	82.2	42	56.8	81.8	1405	1	100.0	60

			Temp	Hi	Low	Out	Dew	Wind	Wind	Wind	Hi	Hi	Wind	Heat	THW			Rain	Heat	Cool	In 	In	In 	In 	Wind	Wind	ISS 	Arc.
Date		Time	Out	Temp	Temp	Hum	Pt.	Speed	Dir	Run	Speed	Dir	Chill	Index	Index	Bar  	Rain	Rate	D-D 	D-D 	Temp	Hum	Dew	Heat	Samp	Tx 	Recept	Int.
------------------------------------------------------------------------------------------------------------------------------------------